createdAt,value
2023-04-02T00:00:27.569Z,99634.23
2023-04-02T00:05:51.005Z,99638.05
2023-04-02T00:11:01.894Z,99642.74
2023-04-02T00:16:07.893Z,99646.14
2023-04-02T00:21:22.386Z,99654.20
2023-04-02T00:26:34.438Z,99657.64
2023-04-02T00:31:42.445Z,99665.95
2023-04-02T00:36:46.727Z,99669.14
2023-04-02T00:41:58.788Z,99672.95
2023-04-02T00:47:09.218Z,99677.88
2023-04-02T00:52:16.639Z,99675.63
2023-04-02T00:57:27.013Z,99685.61
2023-04-02T01:02:38.526Z,99687.91
2023-04-02T01:08:00.691Z,99697.81
2023-04-02T01:13:18.769Z,99701.80
2023-04-02T01:18:35.745Z,99710.41
2023-04-02T01:23:59.747Z,99714.73
2023-04-02T01:29:16.058Z,99720.80
2023-04-02T01:34:22.246Z,99720.98
2023-04-02T01:39:42.037Z,99724.59
2023-04-02T01:44:53.309Z,99726.04
2023-04-02T01:50:19.653Z,99728.86
2023-04-02T01:55:33.194Z,99733.61
2023-04-02T02:00:41.446Z,99742.15
2023-04-02T02:05:44.646Z,99747.79
2023-04-02T02:10:49.653Z,99751.54
2023-04-02T02:15:52.572Z,99759.08
2023-04-02T02:21:00.164Z,99767.45
2023-04-02T02:26:06.305Z,99768.70
2023-04-02T02:31:19.566Z,99776.75
2023-04-02T02:36:34.100Z,99776.10
2023-04-02T02:41:45.291Z,99778.89
2023-04-02T02:47:10.751Z,99782.41
2023-04-02T02:52:17.557Z,99784.09
2023-04-02T02:57:23.230Z,99793.79
2023-04-02T03:02:28.636Z,99797.18
2023-04-02T03:07:32.610Z,99800.41
2023-04-02T03:13:00.104Z,99807.46
2023-04-02T03:18:26.544Z,99817.27
2023-04-02T03:23:36.469Z,99824.45
2023-04-02T03:28:45.268Z,99837.33
2023-04-02T03:33:59.116Z,99840.38
2023-04-02T03:39:10.330Z,99851.88
2023-04-02T03:44:26.258Z,99858.67
2023-04-02T03:49:36.251Z,99868.48
2023-04-02T03:54:40.957Z,99880.71
2023-04-02T04:00:05.170Z,99887.64
2023-04-02T04:05:21.556Z,99893.86
2023-04-02T04:10:26.338Z,99896.82
2023-04-02T04:15:56.320Z,99901.44
2023-04-02T04:21:03.412Z,99912.92
2023-04-02T04:26:13.016Z,99921.02
2023-04-02T04:31:27.137Z,99923.55
2023-04-02T04:36:35.628Z,99927.83
2023-04-02T04:41:40.891Z,99937.09
2023-04-02T04:46:55.965Z,99943.95
2023-04-02T04:52:06.293Z,99951.71
2023-04-02T04:57:27.409Z,99959.20
2023-04-02T05:02:37.323Z,99967.69
2023-04-02T05:07:49.770Z,99977.21
2023-04-02T05:13:03.958Z,99976.43
2023-04-02T05:18:25.274Z,99984.85
2023-04-02T05:23:37.369Z,99996.36
2023-04-02T05:29:11.016Z,100006.22
2023-04-02T05:34:21.672Z,100008.11
2023-04-02T05:39:26.932Z,100008.18
2023-04-02T05:44:39.063Z,100011.92
2023-04-02T05:49:49.077Z,100022.95
2023-04-02T05:54:59.313Z,100024.80
2023-04-02T06:00:09.045Z,100030.17
2023-04-02T06:05:17.603Z,100035.24
2023-04-02T06:10:29.108Z,100042.41
2023-04-02T06:15:33.858Z,100051.98
2023-04-02T06:20:36.819Z,100057.51
2023-04-02T06:25:45.945Z,100063.23
2023-04-02T06:30:50.322Z,100074.42
2023-04-02T06:35:55.182Z,100075.79
2023-04-02T06:41:20.676Z,100082.67
2023-04-02T06:46:38.995Z,100090.02
2023-04-02T06:51:44.242Z,100098.85
2023-04-02T06:56:51.524Z,100098.88
2023-04-02T07:02:19.055Z,100109.32
2023-04-02T07:07:21.860Z,100117.21
2023-04-02T07:12:26.080Z,100122.36
2023-04-02T07:17:28.856Z,100134.67
2023-04-02T07:22:31.604Z,100146.70
2023-04-02T07:27:34.271Z,100150.71
2023-04-02T07:32:38.489Z,100157.22
2023-04-02T07:37:41.228Z,100163.27
2023-04-02T07:42:45.394Z,100168.27
2023-04-02T07:47:48.128Z,100173.54
2023-04-02T07:52:50.854Z,100174.58
2023-04-02T07:57:56.193Z,100184.09
2023-04-02T08:02:59.374Z,100188.37
2023-04-02T08:08:02.182Z,100193.59
2023-04-02T08:13:04.880Z,100206.13
2023-04-02T08:18:08.204Z,100210.61
2023-04-02T08:23:17.208Z,100219.54
2023-04-02T08:28:21.397Z,100229.29
2023-04-02T08:33:24.227Z,100236.28
2023-04-02T08:38:26.954Z,100246.27
2023-04-02T08:43:57.842Z,100249.98
2023-04-02T08:49:04.630Z,100248.00
2023-04-02T08:54:29.385Z,100258.36
2023-04-02T08:59:38.955Z,100259.30
2023-04-02T09:04:42.083Z,100270.67
2023-04-02T09:09:48.881Z,100281.67
2023-04-02T09:14:54.384Z,100286.98
2023-04-02T09:20:36.463Z,100294.77
2023-04-02T09:25:54.118Z,100305.18
2023-04-02T09:31:20.967Z,100317.70
2023-04-02T09:36:38.817Z,100327.61
2023-04-02T09:41:43.832Z,100333.23
2023-04-02T09:47:04.923Z,100341.05
2023-04-02T09:52:28.438Z,100346.48
2023-04-02T09:57:32.944Z,100357.52
2023-04-02T10:02:35.659Z,100360.34
2023-04-02T10:07:38.376Z,100367.20
2023-04-02T10:12:42.497Z,100374.31
2023-04-02T10:17:54.187Z,100377.50
2023-04-02T10:22:56.943Z,100385.69
2023-04-02T10:28:11.743Z,100387.73
2023-04-02T10:33:20.168Z,100394.30
2023-04-02T10:38:51.282Z,100401.83
2023-04-02T10:44:16.775Z,100402.52
2023-04-02T10:49:31.783Z,100406.39
2023-04-02T10:54:51.465Z,100408.31
2023-04-02T11:00:18.993Z,100420.44
2023-04-02T11:05:48.334Z,100427.42
2023-04-02T11:11:08.002Z,100435.74
2023-04-02T11:16:15.561Z,100443.89
2023-04-02T11:21:30.434Z,100453.68
2023-04-02T11:26:41.627Z,100453.80
2023-04-02T11:31:46.000Z,100461.09
2023-04-02T11:36:54.870Z,100466.02
2023-04-02T11:42:04.572Z,100475.17
2023-04-02T11:47:19.672Z,100483.73
2023-04-02T11:52:32.539Z,100487.69
2023-04-02T11:58:02.565Z,100494.00
2023-04-02T12:03:25.676Z,100500.19
2023-04-02T12:08:57.024Z,100512.84
2023-04-02T12:14:01.854Z,100517.27
2023-04-02T12:19:08.609Z,100523.86
2023-04-02T12:24:17.769Z,100531.08
2023-04-02T12:29:25.723Z,100534.17
2023-04-02T12:34:30.721Z,100542.13
2023-04-02T12:39:35.372Z,100539.84
2023-04-02T12:44:38.117Z,100542.61
2023-04-02T12:49:43.772Z,100552.44
2023-04-02T12:54:52.949Z,100553.25
2023-04-02T12:59:58.671Z,100563.71
2023-04-02T13:05:02.453Z,100571.80
2023-04-02T13:10:26.605Z,100577.02
2023-04-02T13:15:43.639Z,100583.98
2023-04-02T13:20:59.259Z,100592.41
2023-04-02T13:26:24.318Z,100599.39
2023-04-02T13:31:28.558Z,100611.06
2023-04-02T13:36:31.280Z,100618.11
2023-04-02T13:41:39.976Z,100618.84
2023-04-02T13:46:42.685Z,100624.38
2023-04-02T13:51:51.819Z,100626.94
2023-04-02T13:56:57.819Z,100630.18
2023-04-02T14:02:07.557Z,100629.41
2023-04-02T14:07:23.361Z,100632.27
2023-04-02T14:12:44.545Z,100633.92
2023-04-02T14:18:11.904Z,100637.92
2023-04-02T14:23:31.526Z,100649.06
2023-04-02T14:28:51.285Z,100648.98
2023-04-02T14:34:35.004Z,100657.95
2023-04-02T14:39:53.465Z,100662.88
2023-04-02T14:45:05.455Z,100670.64
2023-04-02T14:50:17.231Z,100672.17
2023-04-02T14:55:42.605Z,100674.29
2023-04-02T15:00:52.956Z,100676.87
2023-04-02T15:05:56.071Z,100679.45
2023-04-02T15:11:12.209Z,100683.23
2023-04-02T15:16:22.822Z,100697.33
2023-04-02T15:21:55.884Z,100700.15
2023-04-02T15:27:49.563Z,100707.84
2023-04-02T15:32:56.448Z,100710.91
2023-04-02T15:38:08.232Z,100718.41
2023-04-02T15:43:16.270Z,100733.39
2023-04-02T15:48:26.428Z,100740.29
2023-04-02T15:53:44.783Z,100746.68
2023-04-02T15:59:06.930Z,100748.46
2023-04-02T16:04:45.876Z,100760.33
2023-04-02T16:10:10.168Z,100767.38
2023-04-02T16:15:28.398Z,100770.23
2023-04-02T16:20:43.793Z,100774.73
2023-04-02T16:26:02.444Z,100778.27
2023-04-02T16:31:19.813Z,100780.17
2023-04-02T16:36:22.648Z,100795.55
2023-04-02T16:41:31.751Z,100806.72
2023-04-02T16:46:46.692Z,100816.25
2023-04-02T16:52:18.429Z,100829.94
2023-04-02T16:57:33.129Z,100841.79
2023-04-02T17:02:43.934Z,100851.42
2023-04-02T17:08:17.356Z,100860.39
2023-04-02T17:13:41.893Z,100867.71
2023-04-02T17:18:48.503Z,100877.23
2023-04-02T17:23:56.807Z,100887.45
2023-04-02T17:29:07.434Z,100896.35
2023-04-02T17:34:17.864Z,100906.65
2023-04-02T17:39:32.652Z,100916.61
2023-04-02T17:45:03.489Z,100928.98
2023-04-02T17:50:12.075Z,100938.34
2023-04-02T17:55:40.895Z,100949.31
2023-04-02T18:00:52.661Z,100952.30
2023-04-02T18:06:03.623Z,100963.43
2023-04-02T18:11:10.519Z,100977.19
2023-04-02T18:16:19.105Z,100985.89
2023-04-02T18:21:52.906Z,100992.64
2023-04-02T18:27:37.391Z,101000.98
2023-04-02T18:33:11.070Z,101016.75
2023-04-02T18:38:36.505Z,101014.75
2023-04-02T18:43:55.853Z,101023.54
2023-04-02T18:49:02.698Z,101030.41
2023-04-02T18:54:38.580Z,101042.42
2023-04-02T18:59:45.318Z,101048.78
2023-04-02T19:04:53.205Z,101052.16
2023-04-02T19:10:01.085Z,101058.14
2023-04-02T19:15:16.124Z,101060.22
2023-04-02T19:20:24.747Z,101067.45
2023-04-02T19:25:30.631Z,101073.75
2023-04-02T19:30:39.124Z,101081.90
2023-04-02T19:35:48.776Z,101091.13
2023-04-02T19:40:59.774Z,101093.98
2023-04-02T19:46:02.962Z,101106.24
2023-04-02T19:51:05.728Z,101116.13
2023-04-02T19:56:08.744Z,101115.34
2023-04-02T20:01:11.486Z,101121.92
2023-04-02T20:06:14.900Z,101126.64
2023-04-02T20:11:17.600Z,101130.48
2023-04-02T20:16:21.880Z,101136.20
2023-04-02T20:21:24.804Z,101142.80
2023-04-02T20:26:27.730Z,101154.02
2023-04-02T20:31:30.705Z,101159.73
2023-04-02T20:36:33.712Z,101163.38
2023-04-02T20:41:36.531Z,101169.41
2023-04-02T20:46:40.288Z,101172.20
2023-04-02T20:51:43.733Z,101181.69
2023-04-02T20:56:46.690Z,101183.10
2023-04-02T21:01:49.460Z,101184.18
2023-04-02T21:06:57.085Z,101196.40
2023-04-02T21:12:00.141Z,101197.27
2023-04-02T21:17:07.002Z,101206.36
2023-04-02T21:22:09.725Z,101216.14
2023-04-02T21:27:12.664Z,101215.10
2023-04-02T21:32:21.763Z,101222.14
2023-04-02T21:37:25.722Z,101223.89
2023-04-02T21:42:29.081Z,101230.13
2023-04-02T21:47:31.799Z,101231.19
2023-04-02T21:52:34.458Z,101235.02
2023-04-02T21:57:37.149Z,101236.08
2023-04-02T22:02:39.987Z,101238.17
2023-04-02T22:07:42.743Z,101239.08
2023-04-02T22:12:45.570Z,101244.09
2023-04-02T22:17:48.260Z,101246.52
2023-04-02T22:22:51.472Z,101251.34
2023-04-02T22:27:54.196Z,101257.17
2023-04-02T22:32:56.884Z,101259.05
2023-04-02T22:37:59.612Z,101256.80
2023-04-02T22:43:02.727Z,101258.50
2023-04-02T22:48:05.719Z,101266.77
2023-04-02T22:53:08.434Z,101269.36
2023-04-02T22:58:11.099Z,101274.70
2023-04-02T23:03:13.863Z,101276.96
2023-04-02T23:08:16.517Z,101279.38
2023-04-02T23:13:19.204Z,101277.02
2023-04-02T23:18:22.457Z,101285.44
2023-04-02T23:23:26.617Z,101284.75
2023-04-02T23:28:29.290Z,101288.36
2023-04-02T23:33:32.159Z,101292.13
2023-04-02T23:38:34.887Z,101288.88
2023-04-02T23:43:37.564Z,101290.06
2023-04-02T23:48:41.215Z,101290.91
2023-04-02T23:53:43.922Z,101295.20
2023-04-02T23:58:46.630Z,101297.80
